Time;durP1;ratioP1;P1;durP2;ratioP2;P2;SDS_P1;SDS_P2;PMS_P1;PMS_P2;Temp;Humidity;BMP_temperature;BMP_pressure;BME280_temperature;BME280_humidity;BME280_pressure;Samples;Min_cycle;Max_cycle;Signal;HPM_P1;HPM_P2
2023/09/27 00:00:18;;;;;;;14.10;12.65;;;14.60;99.90;;;;;;5034312;28;20045;-80
2023/09/27 00:02:44;;;;;;;14.00;12.55;;;14.60;99.90;;;;;;5035978;28;20053;-80
2023/09/27 00:05:11;;;;;;;17.48;15.65;;;14.60;99.90;;;;;;5036460;28;20080;-80
2023/09/27 00:07:38;;;;;;;15.45;13.88;;;14.60;99.90;;;;;;5036164;28;20038;-80
2023/09/27 00:10:05;;;;;;;16.20;13.68;;;14.60;99.90;;;;;;5035701;28;20049;-80
2023/09/27 00:12:32;;;;;;;17.20;15.40;;;14.60;99.90;;;;;;5035483;28;20045;-80
2023/09/27 00:15:01;;;;;;;16.23;14.50;;;14.60;99.90;;;;;;5034469;28;20049;-80
2023/09/27 00:17:30;;;;;;;15.65;14.05;;;14.60;99.90;;;;;;5035586;28;20045;-80
2023/09/27 00:19:56;;;;;;;16.33;13.80;;;14.60;99.90;;;;;;5035633;28;20045;-80
2023/09/27 00:22:24;;;;;;;17.88;15.55;;;14.50;99.90;;;;;;5034097;28;20060;-80
2023/09/27 00:24:53;;;;;;;18.35;16.08;;;14.50;99.90;;;;;;5035442;28;20045;-80
2023/09/27 00:27:19;;;;;;;17.73;15.57;;;14.50;99.90;;;;;;5035324;28;20259;-80
2023/09/27 00:29:45;;;;;;;18.95;16.92;;;14.50;99.90;;;;;;5035382;28;20439;-80
2023/09/27 00:32:12;;;;;;;18.92;16.92;;;14.50;99.90;;;;;;5035400;28;20415;-79
2023/09/27 00:34:38;;;;;;;16.90;15.10;;;14.50;99.90;;;;;;5035446;28;20060;-79
2023/09/27 00:37:04;;;;;;;17.45;15.60;;;14.50;99.90;;;;;;5035201;28;20079;-80
2023/09/27 00:39:30;;;;;;;16.52;14.95;;;14.50;99.90;;;;;;5033617;28;20132;-80
2023/09/27 00:41:56;;;;;;;17.30;15.13;;;14.50;99.90;;;;;;5035144;28;20095;-79
2023/09/27 00:44:22;;;;;;;19.90;17.80;;;14.50;99.90;;;;;;5036100;28;20372;-80
2023/09/27 00:46:51;;;;;;;20.45;18.35;;;14.50;99.90;;;;;;5016836;28;20139;-79
2023/09/27 00:49:17;;;;;;;20.33;18.38;;;14.60;99.90;;;;;;5034080;28;20459;-80
2023/09/27 00:51:43;;;;;;;19.15;16.75;;;14.60;99.90;;;;;;5035338;28;20054;-79
2023/09/27 00:54:10;;;;;;;18.85;16.83;;;14.50;99.90;;;;;;5035396;28;20050;-79
2023/09/27 00:56:36;;;;;;;21.23;18.15;;;14.50;99.90;;;;;;5035279;28;20172;-81
2023/09/27 00:59:03;;;;;;;19.83;16.58;;;14.50;99.90;;;;;;5034730;28;20052;-80
2023/09/27 01:01:29;;;;;;;20.35;18.00;;;14.50;99.90;;;;;;5034726;28;20107;-79
2023/09/27 01:03:54;;;;;;;21.77;18.67;;;14.40;99.90;;;;;;5034992;28;20087;-79
2023/09/27 01:06:20;;;;;;;19.98;17.90;;;14.40;99.90;;;;;;5017678;28;20045;-79
2023/09/27 01:08:46;;;;;;;18.75;16.75;;;14.40;99.90;;;;;;5034594;28;20045;-79
2023/09/27 01:11:12;;;;;;;22.17;19.88;;;14.40;99.90;;;;;;5034911;28;20056;-79
2023/09/27 01:13:38;;;;;;;20.02;17.75;;;14.40;99.90;;;;;;5034491;28;20054;-79
2023/09/27 01:16:04;;;;;;;20.83;18.60;;;14.40;99.90;;;;;;5034143;28;20106;-80
2023/09/27 01:18:29;;;;;;;20.80;17.90;;;14.40;99.90;;;;;;5034928;28;20046;-80
2023/09/27 01:20:55;;;;;;;21.25;17.83;;;14.30;99.90;;;;;;5033938;28;20073;-80
2023/09/27 01:23:21;;;;;;;19.95;17.50;;;14.30;99.90;;;;;;5034905;28;20041;-79
2023/09/27 01:25:53;;;;;;;23.95;19.38;;;14.30;99.90;;;;;;5034241;28;20085;-79
2023/09/27 01:28:21;;;;;;;21.67;19.35;;;14.30;99.90;;;;;;5033328;28;20041;-80
2023/09/27 01:30:47;;;;;;;23.70;19.13;;;14.30;99.90;;;;;;5034289;28;20049;-80
2023/09/27 01:33:13;;;;;;;21.15;18.73;;;14.30;99.90;;;;;;5032803;28;20045;-79
2023/09/27 01:35:41;;;;;;;22.25;19.50;;;14.20;99.90;;;;;;5033052;28;20525;-80
2023/09/27 01:38:08;;;;;;;20.58;18.42;;;14.20;99.90;;;;;;5032499;28;20065;-79
2023/09/27 01:40:42;;;;;;;20.80;18.70;;;14.20;99.90;;;;;;5033871;28;20504;-80
2023/09/27 01:43:08;;;;;;;17.38;15.60;;;14.20;99.90;;;;;;5034238;28;20073;-79
2023/09/27 01:45:34;;;;;;;21.70;17.83;;;14.20;99.90;;;;;;5034603;28;20084;-80
2023/09/27 01:48:01;;;;;;;22.05;19.73;;;14.20;99.90;;;;;;5033724;28;20155;-79
2023/09/27 01:50:28;;;;;;;21.75;19.38;;;14.10;99.90;;;;;;5033589;28;20045;-79
2023/09/27 01:52:55;;;;;;;22.02;19.70;;;14.10;99.90;;;;;;5033978;28;20073;-79
2023/09/27 01:55:22;;;;;;;21.85;18.48;;;14.10;99.90;;;;;;5033977;28;20484;-80
2023/09/27 01:57:48;;;;;;;22.38;19.70;;;14.10;99.90;;;;;;5033639;28;20049;-79
2023/09/27 02:00:16;;;;;;;17.15;15.45;;;14.10;99.90;;;;;;5033192;28;20155;-79
2023/09/27 02:02:48;;;;;;;20.42;18.10;;;14.10;99.90;;;;;;5033479;28;20046;-80
2023/09/27 02:05:14;;;;;;;19.58;16.77;;;14.10;99.90;;;;;;5033869;28;20057;-80
2023/09/27 02:07:40;;;;;;;24.77;19.17;;;14.10;99.90;;;;;;5033557;28;20046;-80
2023/09/27 02:10:10;;;;;;;20.55;17.52;;;14.10;99.90;;;;;;5033884;28;20124;-80
2023/09/27 02:12:37;;;;;;;21.08;18.80;;;14.10;99.90;;;;;;5033380;28;20045;-80
2023/09/27 02:15:04;;;;;;;21.33;18.88;;;14.00;99.90;;;;;;5033687;28;20045;-80
2023/09/27 02:17:30;;;;;;;20.45;18.35;;;14.00;99.90;;;;;;5032898;28;20111;-80
2023/09/27 02:19:56;;;;;;;22.08;18.10;;;14.00;99.90;;;;;;5032446;28;20069;-80
2023/09/27 02:22:22;;;;;;;22.58;19.45;;;14.00;99.90;;;;;;5031929;28;20041;-80
2023/09/27 02:24:48;;;;;;;18.95;16.90;;;14.00;99.90;;;;;;5033004;28;20053;-80
2023/09/27 02:27:14;;;;;;;20.85;18.40;;;14.00;99.90;;;;;;5032969;28;20046;-80
2023/09/27 02:29:43;;;;;;;21.00;18.83;;;13.90;99.90;;;;;;5033050;28;20124;-80
2023/09/27 02:32:09;;;;;;;22.60;20.15;;;13.90;99.90;;;;;;5033077;28;20478;-80
2023/09/27 02:34:35;;;;;;;22.75;20.45;;;13.90;99.90;;;;;;5033049;28;20049;-80
2023/09/27 02:37:01;;;;;;;22.70;19.50;;;13.90;99.90;;;;;;5032474;28;20064;-81
2023/09/27 02:39:28;;;;;;;24.77;21.83;;;13.90;99.90;;;;;;5033316;28;20053;-80
2023/09/27 02:41:59;;;;;;;21.35;18.90;;;13.90;99.90;;;;;;5032834;28;20148;-80
2023/09/27 02:44:26;;;;;;;20.02;17.70;;;13.90;99.90;;;;;;5032909;28;20120;-80
2023/09/27 02:46:55;;;;;;;22.15;18.08;;;13.80;99.90;;;;;;5032793;28;20429;-80
2023/09/27 02:49:21;;;;;;;23.33;19.65;;;13.90;99.90;;;;;;5033171;28;20092;-80
2023/09/27 02:51:47;;;;;;;19.88;17.80;;;13.90;99.90;;;;;;5033053;28;20037;-80
2023/09/27 02:54:14;;;;;;;23.23;20.83;;;13.90;99.90;;;;;;5033042;28;20346;-80
2023/09/27 02:56:43;;;;;;;21.45;18.83;;;13.90;99.90;;;;;;5033025;28;20084;-81
2023/09/27 02:59:10;;;;;;;21.63;19.48;;;13.80;99.90;;;;;;5032570;28;20060;-80
2023/09/27 03:01:40;;;;;;;23.48;20.95;;;13.90;99.90;;;;;;5032673;28;20045;-80
2023/09/27 03:04:10;;;;;;;19.75;17.63;;;13.80;99.90;;;;;;5032999;28;20340;-80
2023/09/27 03:06:37;;;;;;;22.48;20.20;;;13.90;99.90;;;;;;5032670;28;20049;-80
2023/09/27 03:09:08;;;;;;;18.67;16.80;;;13.90;99.90;;;;;;5032581;28;20049;-80
2023/09/27 03:11:34;;;;;;;19.48;17.45;;;13.80;99.90;;;;;;5032767;28;20191;-80
2023/09/27 03:14:00;;;;;;;25.33;22.13;;;13.80;99.90;;;;;;5032440;28;20434;-80
2023/09/27 03:16:26;;;;;;;21.40;19.08;;;13.90;99.90;;;;;;5032444;28;20127;-80
2023/09/27 03:18:51;;;;;;;23.88;20.50;;;13.90;99.90;;;;;;5032928;28;20041;-79
2023/09/27 03:21:17;;;;;;;25.27;22.52;;;13.80;99.90;;;;;;5032819;28;20048;-80
2023/09/27 03:23:46;;;;;;;22.88;20.48;;;13.80;99.90;;;;;;5032946;28;20054;-80
2023/09/27 03:26:12;;;;;;;20.83;18.58;;;13.80;99.90;;;;;;5032698;28;20107;-80
2023/09/27 03:28:38;;;;;;;22.40;19.98;;;13.80;99.90;;;;;;5032272;28;20038;-80
2023/09/27 03:31:05;;;;;;;21.50;18.35;;;13.80;99.90;;;;;;5031236;28;20523;-82
2023/09/27 03:33:31;;;;;;;23.48;20.95;;;13.80;99.90;;;;;;5033002;28;20049;-80
2023/09/27 03:35:57;;;;;;;22.42;18.35;;;13.80;99.90;;;;;;5032276;28;20499;-80
2023/09/27 03:38:23;;;;;;;22.50;20.20;;;13.80;99.90;;;;;;5030691;28;20100;-80
2023/09/27 03:40:50;;;;;;;24.90;21.30;;;13.80;99.90;;;;;;5032168;28;20053;-80
2023/09/27 03:43:16;;;;;;;23.42;18.80;;;13.70;99.90;;;;;;5032290;28;20050;-80
2023/09/27 03:45:41;;;;;;;20.98;18.60;;;13.70;99.90;;;;;;5032550;28;20037;-80
2023/09/27 03:48:07;;;;;;;22.63;20.23;;;13.70;99.90;;;;;;5032569;28;20132;-80
2023/09/27 03:50:33;;;;;;;23.10;20.40;;;13.70;99.90;;;;;;5032476;28;20050;-80
2023/09/27 03:52:59;;;;;;;21.73;19.45;;;13.60;99.90;;;;;;5032422;28;20437;-80
2023/09/27 03:55:25;;;;;;;21.58;19.25;;;13.60;99.90;;;;;;5031982;28;20061;-80
2023/09/27 03:57:54;;;;;;;20.48;18.45;;;13.60;99.90;;;;;;5032097;28;20398;-80
2023/09/27 04:00:20;;;;;;;24.35;21.90;;;13.50;99.90;;;;;;5032460;28;20069;-80
2023/09/27 04:02:46;;;;;;;24.17;21.67;;;13.50;99.90;;;;;;5031228;28;20529;-80
2023/09/27 04:05:13;;;;;;;24.05;21.23;;;13.50;99.90;;;;;;5031935;28;20079;-80
2023/09/27 04:07:39;;;;;;;24.50;21.25;;;13.50;99.90;;;;;;5031379;28;20045;-79
2023/09/27 04:10:07;;;;;;;27.25;21.60;;;13.40;99.90;;;;;;5031849;28;20049;-81
2023/09/27 04:12:34;;;;;;;30.30;24.63;;;13.40;99.90;;;;;;5031833;28;20052;-79
2023/09/27 04:14:59;;;;;;;24.83;21.02;;;13.40;99.90;;;;;;5031622;28;20045;-80
2023/09/27 04:17:25;;;;;;;31.90;25.63;;;13.40;99.90;;;;;;5031742;28;20060;-80
2023/09/27 04:19:52;;;;;;;24.58;22.00;;;13.40;99.90;;;;;;5031595;28;20474;-80
2023/09/27 04:22:18;;;;;;;21.60;19.15;;;13.50;99.90;;;;;;5032495;28;20052;-80
2023/09/27 04:24:44;;;;;;;27.45;23.52;;;13.40;99.90;;;;;;5035715;28;20466;-80
2023/09/27 04:27:09;;;;;;;29.08;25.58;;;13.40;99.90;;;;;;5035459;28;20045;-80
2023/09/27 04:29:35;;;;;;;28.50;23.77;;;13.40;99.90;;;;;;5035279;28;20041;-80
2023/09/27 04:32:01;;;;;;;24.48;21.85;;;13.40;99.90;;;;;;5035166;28;20428;-80
2023/09/27 04:34:28;;;;;;;27.48;24.23;;;13.40;99.90;;;;;;5035560;28;20125;-80
2023/09/27 04:36:54;;;;;;;27.90;24.92;;;13.40;99.90;;;;;;5034790;28;20065;-80
2023/09/27 04:39:20;;;;;;;30.05;25.35;;;13.30;99.90;;;;;;5033724;28;20088;-80
2023/09/27 04:41:46;;;;;;;36.22;28.58;;;13.20;99.90;;;;;;5035002;28;20052;-80
2023/09/27 04:44:16;;;;;;;27.50;24.60;;;13.20;99.90;;;;;;5034134;28;20083;-80
2023/09/27 04:46:41;;;;;;;28.42;24.17;;;13.20;99.90;;;;;;5034568;28;20425;-80
2023/09/27 04:49:07;;;;;;;33.42;26.30;;;13.10;99.90;;;;;;5034876;28;20128;-80
2023/09/27 04:51:33;;;;;;;21.73;19.25;;;13.20;99.90;;;;;;5035300;28;20049;-80
2023/09/27 04:54:00;;;;;;;31.42;26.52;;;13.20;99.90;;;;;;5034769;28;20442;-80
2023/09/27 04:56:30;;;;;;;29.95;25.63;;;13.20;99.90;;;;;;5034671;28;20132;-80
2023/09/27 04:58:58;;;;;;;26.45;23.65;;;13.20;99.90;;;;;;5033375;28;20128;-80
2023/09/27 05:01:24;;;;;;;26.40;23.40;;;13.10;99.90;;;;;;5033394;28;20050;-80
2023/09/27 05:03:50;;;;;;;30.08;23.67;;;13.10;99.90;;;;;;5034443;28;20045;-80
2023/09/27 05:06:15;;;;;;;30.15;25.00;;;13.10;99.90;;;;;;5034436;28;20120;-80
2023/09/27 05:08:41;;;;;;;25.83;22.52;;;13.00;99.90;;;;;;5033745;28;20042;-80
2023/09/27 05:11:08;;;;;;;32.60;27.10;;;13.10;99.90;;;;;;5034444;28;20079;-80
2023/09/27 05:13:33;;;;;;;34.38;27.52;;;13.10;99.90;;;;;;5034014;28;20378;-80
2023/09/27 05:15:59;;;;;;;32.03;25.92;;;13.10;99.90;;;;;;5033526;28;20049;-80
2023/09/27 05:18:25;;;;;;;30.13;26.45;;;13.10;99.90;;;;;;5034222;28;20120;-80
2023/09/27 05:20:51;;;;;;;30.52;27.15;;;13.10;99.90;;;;;;5034180;28;20056;-80
2023/09/27 05:23:16;;;;;;;37.78;30.10;;;13.00;99.90;;;;;;5034277;28;20129;-80
2023/09/27 05:25:42;;;;;;;37.50;28.77;;;13.00;99.90;;;;;;5034428;28;20387;-80
2023/09/27 05:28:09;;;;;;;28.48;25.40;;;13.10;99.90;;;;;;5034065;28;20091;-80
2023/09/27 05:30:35;;;;;;;32.15;28.25;;;13.10;99.90;;;;;;5033825;28;20046;-80
2023/09/27 05:33:00;;;;;;;30.00;25.98;;;13.20;99.90;;;;;;5034154;28;20132;-80
2023/09/27 05:35:26;;;;;;;31.63;27.15;;;13.20;99.90;;;;;;5033371;28;20498;-80
2023/09/27 05:37:52;;;;;;;29.83;25.45;;;13.30;99.90;;;;;;5034002;28;20091;-80
2023/09/27 05:40:18;;;;;;;30.42;27.10;;;13.30;99.90;;;;;;5034118;28;20060;-80
2023/09/27 05:42:44;;;;;;;30.27;26.63;;;13.30;99.90;;;;;;5032646;28;20413;-80
2023/09/27 05:45:11;;;;;;;28.80;25.40;;;13.40;99.90;;;;;;5033721;28;20109;-80
2023/09/27 05:47:37;;;;;;;32.20;28.77;;;13.40;99.90;;;;;;5033296;28;20046;-80
2023/09/27 05:50:08;;;;;;;32.72;28.52;;;13.50;99.90;;;;;;5033610;28;20483;-80
2023/09/27 05:52:34;;;;;;;27.73;23.17;;;13.50;99.90;;;;;;5032680;28;20053;-80
2023/09/27 05:55:01;;;;;;;29.48;26.40;;;13.60;99.90;;;;;;5033798;28;20077;-80
2023/09/27 05:57:26;;;;;;;30.95;27.17;;;13.70;99.90;;;;;;5033734;28;20048;-80
2023/09/27 05:59:52;;;;;;;32.22;27.65;;;13.60;99.90;;;;;;5033902;28;20049;-81
2023/09/27 06:02:20;;;;;;;39.65;30.27;;;13.60;99.90;;;;;;5033063;28;20073;-80
2023/09/27 06:04:46;;;;;;;24.45;20.98;;;13.60;99.90;;;;;;5033879;28;20123;-81
2023/09/27 06:07:17;;;;;;;32.25;28.80;;;13.70;99.90;;;;;;5032836;28;20116;-80
2023/09/27 06:09:44;;;;;;;29.60;26.38;;;13.70;99.90;;;;;;5033658;28;20050;-80
2023/09/27 06:12:10;;;;;;;22.60;20.23;;;13.80;99.90;;;;;;5033902;28;20048;-84
2023/09/27 06:14:36;;;;;;;29.67;24.88;;;13.80;99.90;;;;;;5033379;28;20049;-83
2023/09/27 06:17:03;;;;;;;33.65;27.13;;;13.90;99.90;;;;;;5033014;28;20057;-83
2023/09/27 06:19:31;;;;;;;27.80;24.83;;;13.90;99.90;;;;;;5033532;28;20053;-84
2023/09/27 06:21:58;;;;;;;29.05;26.20;;;13.90;99.90;;;;;;5033414;28;20056;-82
2023/09/27 06:24:26;;;;;;;28.67;25.55;;;13.90;99.90;;;;;;5033526;28;20053;-84
2023/09/27 06:26:53;;;;;;;24.55;21.85;;;13.90;99.90;;;;;;5033182;28;20045;-82
2023/09/27 06:29:19;;;;;;;28.50;24.45;;;13.90;99.90;;;;;;5033335;28;20085;-85
2023/09/27 06:31:49;;;;;;;29.17;25.77;;;13.90;99.90;;;;;;5033246;28;20107;-87
2023/09/27 06:34:18;;;;;;;24.83;22.08;;;14.00;99.90;;;;;;5032195;28;20041;-82
2023/09/27 06:36:48;;;;;;;35.80;27.08;;;14.10;99.90;;;;;;5031582;28;20504;-81
2023/09/27 06:39:14;;;;;;;28.83;25.90;;;14.00;99.90;;;;;;5033305;28;20104;-83
2023/09/27 06:41:41;;;;;;;29.77;26.58;;;14.00;99.90;;;;;;5031867;28;20050;-86
2023/09/27 06:44:08;;;;;;;36.38;27.15;;;14.10;99.90;;;;;;5032974;28;20100;-83
2023/09/27 06:46:35;;;;;;;31.80;27.17;;;14.00;99.90;;;;;;5032575;28;20068;-84
2023/09/27 06:49:04;;;;;;;26.58;23.70;;;14.00;99.90;;;;;;5032764;28;20152;-82
2023/09/27 06:51:30;;;;;;;29.08;25.88;;;14.10;99.90;;;;;;5033051;28;20091;-84
2023/09/27 06:53:55;;;;;;;27.13;21.67;;;14.20;99.90;;;;;;5033235;28;20108;-84
2023/09/27 06:56:21;;;;;;;25.65;21.70;;;14.30;99.90;;;;;;5033124;28;20041;-85
2023/09/27 06:58:49;;;;;;;30.67;25.73;;;14.30;99.90;;;;;;5031218;28;20075;-84
2023/09/27 07:01:15;;;;;;;34.83;27.80;;;14.50;99.90;;;;;;5031836;28;20095;-85
2023/09/27 07:03:41;;;;;;;29.90;26.77;;;14.60;99.90;;;;;;5031538;28;20053;-86
2023/09/27 07:06:06;;;;;;;28.33;22.73;;;14.70;99.90;;;;;;5032664;28;20049;-84
2023/09/27 07:08:33;;;;;;;32.03;26.73;;;14.80;99.90;;;;;;5032940;28;20034;-83
2023/09/27 07:11:05;;;;;;;28.95;25.25;;;14.90;99.90;;;;;;5032142;28;20045;-85
2023/09/27 07:13:32;;;;;;;28.05;25.05;;;15.10;99.90;;;;;;5032673;28;20063;-84
2023/09/27 07:15:59;;;;;;;28.05;23.05;;;15.20;99.90;;;;;;5015102;28;20053;-85
2023/09/27 07:18:27;;;;;;;30.80;25.40;;;15.40;99.90;;;;;;5031403;28;20481;-81
2023/09/27 07:20:54;;;;;;;27.40;24.50;;;15.60;99.90;;;;;;5032407;28;20076;-80
2023/09/27 07:23:21;;;;;;;32.33;25.40;;;15.70;99.90;;;;;;5031238;28;20045;-80
2023/09/27 07:25:47;;;;;;;30.30;25.95;;;15.80;99.90;;;;;;5032311;28;20049;-81
2023/09/27 07:28:14;;;;;;;30.65;24.88;;;15.80;99.90;;;;;;5032444;28;20064;-80
2023/09/27 07:30:39;;;;;;;28.98;25.80;;;15.90;99.90;;;;;;5031613;28;20052;-80
2023/09/27 07:33:09;;;;;;;26.50;23.60;;;16.10;99.90;;;;;;5031852;28;20422;-80
2023/09/27 07:35:38;;;;;;;28.70;25.30;;;16.10;99.90;;;;;;5032341;28;20180;-81
2023/09/27 07:38:07;;;;;;;27.65;24.42;;;16.20;99.90;;;;;;5032045;28;20147;-81
2023/09/27 07:40:33;;;;;;;30.05;26.25;;;16.30;99.90;;;;;;5030942;28;20128;-80
2023/09/27 07:42:59;;;;;;;29.45;24.42;;;16.50;99.90;;;;;;5032430;28;20087;-80
2023/09/27 07:45:31;;;;;;;26.70;23.80;;;16.50;99.90;;;;;;5032145;28;20080;-81
2023/09/27 07:47:56;;;;;;;27.73;23.60;;;16.70;99.90;;;;;;5032433;28;20045;-80
2023/09/27 07:50:33;;;;;;;25.60;22.90;;;16.90;99.90;;;;;;5030920;28;20397;-82
2023/09/27 07:53:00;;;;;;;25.90;22.50;;;17.00;99.90;;;;;;5032118;28;20050;-82
2023/09/27 07:55:26;;;;;;;26.83;23.38;;;17.20;99.90;;;;;;5032025;28;20053;-81
2023/09/27 07:57:52;;;;;;;24.48;21.42;;;17.50;99.90;;;;;;5034289;28;20107;-82
2023/09/27 08:00:19;;;;;;;24.88;22.05;;;17.80;99.90;;;;;;5036189;28;20049;-81
2023/09/27 08:02:46;;;;;;;30.48;22.52;;;17.90;99.90;;;;;;5036038;28;20087;-82
2023/09/27 08:05:14;;;;;;;24.20;21.65;;;17.90;99.90;;;;;;5034512;28;20049;-81
2023/09/27 08:07:40;;;;;;;25.02;22.00;;;17.90;99.90;;;;;;5035751;28;20089;-82
2023/09/27 08:10:06;;;;;;;24.05;21.48;;;17.80;99.90;;;;;;5035444;28;20064;-80
2023/09/27 08:12:34;;;;;;;28.88;22.63;;;17.70;99.90;;;;;;5034751;28;20501;-82
2023/09/27 08:15:00;;;;;;;30.60;22.58;;;17.70;99.90;;;;;;5035612;28;20097;-80
2023/09/27 08:17:26;;;;;;;27.40;22.58;;;17.70;99.90;;;;;;5035711;28;20045;-81
2023/09/27 08:19:52;;;;;;;25.50;20.85;;;18.30;99.90;;;;;;5035572;28;20472;-80
2023/09/27 08:22:18;;;;;;;22.90;20.42;;;19.60;99.90;;;;;;5035918;28;20482;-80
2023/09/27 08:24:43;;;;;;;23.60;20.33;;;20.80;99.90;;;;;;5035603;28;20046;-80
2023/09/27 08:27:09;;;;;;;20.88;18.67;;;21.60;99.90;;;;;;5034481;28;20489;-80
2023/09/27 08:29:35;;;;;;;22.10;19.27;;;22.30;99.90;;;;;;5035357;28;20046;-82
2023/09/27 08:32:01;;;;;;;21.55;17.25;;;23.00;99.90;;;;;;5035579;28;20489;-80
2023/09/27 08:34:27;;;;;;;21.92;18.25;;;23.70;99.90;;;;;;5017552;28;20041;-80
2023/09/27 08:36:53;;;;;;;20.88;18.55;;;24.00;99.90;;;;;;5035017;28;20140;-81
2023/09/27 08:39:19;;;;;;;19.85;16.75;;;24.10;99.90;;;;;;5035597;28;20099;-81
2023/09/27 08:41:45;;;;;;;19.92;17.85;;;24.40;99.90;;;;;;5035031;28;20038;-81
2023/09/27 08:44:13;;;;;;;19.52;16.50;;;24.70;99.90;;;;;;5033867;28;20052;-81
2023/09/27 08:46:40;;;;;;;19.65;15.65;;;24.90;99.90;;;;;;5035552;28;20071;-81
2023/09/27 08:49:08;;;;;;;20.95;14.73;;;25.30;99.90;;;;;;5035137;28;20042;-81
2023/09/27 08:51:38;;;;;;;18.70;15.05;;;25.50;99.90;;;;;;5034910;28;20053;-81
2023/09/27 08:54:05;;;;;;;18.15;14.88;;;25.50;99.90;;;;;;5034650;28;20045;-81
2023/09/27 08:56:32;;;;;;;16.27;14.20;;;24.90;99.90;;;;;;5034810;28;20050;-81
2023/09/27 08:59:00;;;;;;;17.20;13.32;;;25.00;99.90;;;;;;5034902;28;20049;-81
2023/09/27 09:01:25;;;;;;;14.18;12.68;;;25.50;99.90;;;;;;5034794;28;20106;-81
2023/09/27 09:03:52;;;;;;;14.85;12.23;;;25.70;99.90;;;;;;5035122;28;20079;-81
2023/09/27 09:06:19;;;;;;;18.27;11.20;;;25.90;99.90;;;;;;5034526;28;20049;-80
2023/09/27 09:08:46;;;;;;;15.13;12.10;;;25.80;99.90;;;;;;5035113;28;20471;-80
2023/09/27 09:11:16;;;;;;;15.38;12.65;;;25.70;99.90;;;;;;5034683;28;20474;-80
2023/09/27 09:14:10;;;;;;;13.43;10.48;;;25.80;99.90;;;;;;5035043;28;20081;-81
2023/09/27 09:16:47;;;;;;;15.57;10.43;;;26.10;99.90;;;;;;5035257;28;20057;-81
2023/09/27 09:19:24;;;;;;;12.45;9.68;;;26.00;99.90;;;;;;5055646;28;20110;-79
2023/09/27 09:22:00;;;;;;;11.90;8.98;;;26.00;99.90;;;;;;5027095;28;20502;-84
2023/09/27 09:24:26;;;;;;;13.48;9.70;;;26.30;99.90;;;;;;5033277;28;20475;-81
2023/09/27 09:27:09;;;;;;;9.88;8.82;;;25.80;99.90;;;;;;5034771;28;20117;-80
2023/09/27 09:29:53;;;;;;;10.65;8.82;;;25.30;99.90;;;;;;5034414;28;20076;-80
2023/09/27 09:32:24;;;;;;;7.88;6.70;;;25.50;99.90;;;;;;5034147;28;20473;-81
2023/09/27 09:34:53;;;;;;;8.88;7.15;;;26.10;99.90;;;;;;5033389;28;20093;-81
2023/09/27 09:37:20;;;;;;;14.13;7.15;;;26.50;99.90;;;;;;5033878;28;20053;-81
2023/09/27 09:39:49;;;;;;;7.80;6.25;;;26.90;99.90;;;;;;5034047;28;20107;-80
2023/09/27 09:42:33;;;;;;;6.72;5.50;;;27.00;99.90;;;;;;5033949;28;20053;-80
2023/09/27 09:45:06;;;;;;;7.22;5.63;;;26.90;99.40;;;;;;5034201;28;20056;-81
2023/09/27 09:47:39;;;;;;;10.63;6.70;;;26.70;99.90;;;;;;5033858;28;20045;-82
2023/09/27 09:50:07;;;;;;;11.15;7.38;;;26.00;99.90;;;;;;5034371;28;20081;-83
2023/09/27 09:52:38;;;;;;;10.85;6.05;;;26.00;99.90;;;;;;5033908;28;20096;-82
2023/09/27 09:55:06;;;;;;;9.32;6.00;;;26.20;99.90;;;;;;5034323;28;20103;-81
2023/09/27 09:57:35;;;;;;;11.15;5.50;;;26.00;99.90;;;;;;5033702;28;20048;-82
2023/09/27 10:00:27;;;;;;;6.85;4.80;;;25.80;99.90;;;;;;5033578;28;20056;-82
2023/09/27 10:03:02;;;;;;;7.75;5.07;;;25.30;99.90;;;;;;5033592;28;20049;-82
2023/09/27 10:05:38;;;;;;;9.43;6.03;;;24.80;99.90;;;;;;5033953;28;20526;-81
2023/09/27 10:08:05;;;;;;;8.65;6.03;;;24.40;99.90;;;;;;5034018;28;20099;-81
2023/09/27 10:10:33;;;;;;;11.45;6.03;;;24.00;99.90;;;;;;5033509;28;20128;-81
2023/09/27 10:12:59;;;;;;;9.57;6.43;;;23.90;99.90;;;;;;5015820;28;20490;-81
2023/09/27 10:15:26;;;;;;;9.73;6.40;;;25.00;99.90;;;;;;5033459;28;20048;-81
2023/09/27 10:17:52;;;;;;;9.13;7.50;;;26.30;99.80;;;;;;5033299;28;20072;-81
2023/09/27 10:20:22;;;;;;;7.15;6.07;;;27.00;98.90;;;;;;5031321;28;20042;-81
2023/09/27 10:22:49;;;;;;;7.13;6.00;;;26.80;98.70;;;;;;5033152;28;20132;-81
2023/09/27 10:25:27;;;;;;;7.78;6.00;;;26.20;99.10;;;;;;5033276;28;20049;-81
2023/09/27 10:27:59;;;;;;;8.48;5.65;;;25.70;99.30;;;;;;5033476;28;20360;-81
2023/09/27 10:30:25;;;;;;;10.27;7.97;;;25.20;99.70;;;;;;5033032;28;20096;-81
2023/09/27 10:33:22;;;;;;;10.60;7.68;;;24.90;99.90;;;;;;5033041;28;20050;-81
2023/09/27 10:36:02;;;;;;;9.70;7.65;;;24.60;99.90;;;;;;5033482;28;20129;-81
2023/09/27 10:38:43;;;;;;;9.35;7.40;;;24.30;99.90;;;;;;5032628;28;20053;-81
2023/09/27 10:41:29;;;;;;;9.00;8.10;;;24.00;99.90;;;;;;5032842;28;20049;-81
2023/09/27 10:43:55;;;;;;;11.52;9.00;;;23.80;99.90;;;;;;5032772;28;20049;-81
2023/09/27 10:46:21;;;;;;;10.52;9.38;;;23.50;99.90;;;;;;5032115;28;20451;-81
2023/09/27 10:48:54;;;;;;;12.25;9.05;;;23.40;99.90;;;;;;5032770;28;20041;-81
2023/09/27 10:51:21;;;;;;;10.70;8.18;;;23.20;99.90;;;;;;5032817;28;20049;-81
2023/09/27 10:53:48;;;;;;;10.48;8.65;;;23.10;99.90;;;;;;5032823;28;20091;-80
2023/09/27 10:56:15;;;;;;;10.68;8.65;;;23.00;99.90;;;;;;5032760;28;20135;-81
2023/09/27 10:58:45;;;;;;;10.07;8.07;;;22.90;99.90;;;;;;5033036;28;20120;-80
2023/09/27 11:01:11;;;;;;;12.57;9.48;;;22.90;99.90;;;;;;5032665;28;20049;-80
2023/09/27 11:03:37;;;;;;;10.57;9.55;;;22.80;99.90;;;;;;5032534;28;20057;-80
2023/09/27 11:06:16;;;;;;;11.82;9.20;;;22.80;99.90;;;;;;5032223;28;20508;-80
2023/09/27 11:08:42;;;;;;;11.15;9.52;;;22.90;99.90;;;;;;5031316;28;20038;-80
2023/09/27 11:11:10;;;;;;;11.90;10.27;;;23.00;99.90;;;;;;5032914;28;20402;-80
2023/09/27 11:13:41;;;;;;;15.75;11.93;;;23.00;99.90;;;;;;5031809;28;20049;-80
2023/09/27 11:16:14;;;;;;;13.50;11.43;;;22.90;99.90;;;;;;5032960;28;20057;-80
2023/09/27 11:18:44;;;;;;;15.70;11.20;;;22.80;99.90;;;;;;5032117;28;20370;-80
2023/09/27 11:21:11;;;;;;;14.13;11.07;;;22.70;99.90;;;;;;5032436;28;20132;-80
2023/09/27 11:23:57;;;;;;;11.63;10.23;;;22.70;99.90;;;;;;5032211;28;20486;-80
2023/09/27 11:26:24;;;;;;;14.38;10.68;;;22.70;99.90;;;;;;5032472;28;20060;-80
2023/09/27 11:29:03;;;;;;;13.80;10.27;;;22.70;99.90;;;;;;5031160;28;20060;-82
2023/09/27 11:31:30;;;;;;;14.43;10.63;;;22.80;99.90;;;;;;5033437;28;20111;-81
2023/09/27 11:34:15;;;;;;;11.63;10.38;;;22.80;99.90;;;;;;5036315;28;20077;-81
2023/09/27 11:36:54;;;;;;;14.65;11.07;;;22.80;99.90;;;;;;5035840;28;20057;-81
2023/09/27 11:39:47;;;;;;;16.63;11.40;;;22.70;99.90;;;;;;5035146;28;20059;-80
2023/09/27 11:42:13;;;;;;;12.15;10.85;;;22.70;99.90;;;;;;5036023;28;20056;-81
2023/09/27 11:44:38;;;;;;;12.25;10.23;;;22.60;99.90;;;;;;5036442;28;20045;-81
2023/09/27 11:47:08;;;;;;;12.02;10.00;;;22.60;99.90;;;;;;5035967;28;20104;-81
2023/09/27 11:49:35;;;;;;;10.85;9.35;;;22.70;99.90;;;;;;5035703;28;20092;-81
2023/09/27 11:52:02;;;;;;;12.68;10.40;;;22.70;99.90;;;;;;5035641;28;20064;-81
2023/09/27 11:54:28;;;;;;;16.13;9.90;;;22.80;99.90;;;;;;5035631;28;20095;-80
2023/09/27 11:56:54;;;;;;;14.70;11.00;;;22.90;99.90;;;;;;5036182;28;20053;-81
2023/09/27 11:59:20;;;;;;;12.00;10.88;;;23.00;99.90;;;;;;5035455;28;20118;-80
2023/09/27 12:01:46;;;;;;;12.52;11.23;;;22.90;99.90;;;;;;5035484;28;20045;-80
2023/09/27 12:04:12;;;;;;;13.75;11.00;;;22.80;99.90;;;;;;5035623;28;20120;-81
2023/09/27 12:06:37;;;;;;;14.60;11.23;;;22.70;99.90;;;;;;5035222;28;20184;-81
2023/09/27 12:09:05;;;;;;;13.38;11.23;;;22.80;99.90;;;;;;5035337;28;20041;-80
2023/09/27 12:11:31;;;;;;;13.38;10.98;;;22.70;99.90;;;;;;5035617;28;20049;-80
2023/09/27 12:13:57;;;;;;;12.80;11.20;;;22.60;99.90;;;;;;5033907;28;20081;-81
2023/09/27 12:16:23;;;;;;;15.35;11.88;;;22.50;99.90;;;;;;5035350;28;20057;-81
2023/09/27 12:18:49;;;;;;;14.68;11.55;;;22.40;99.90;;;;;;5035222;28;20107;-81
2023/09/27 12:21:15;;;;;;;13.05;11.38;;;22.40;99.90;;;;;;5017762;28;20049;-81
2023/09/27 12:23:43;;;;;;;16.27;12.30;;;22.40;99.90;;;;;;5035602;28;20069;-81
2023/09/27 12:26:09;;;;;;;14.68;12.05;;;22.50;99.90;;;;;;5035727;28;20041;-81
2023/09/27 12:28:37;;;;;;;15.32;11.90;;;22.60;99.90;;;;;;5034977;28;20041;-80
2023/09/27 12:31:06;;;;;;;13.23;11.80;;;22.70;99.90;;;;;;5001662;28;20057;-80